Time,TemperatureF,DewpointF,PressureIn,WindDirection,WindDirectionDegrees,WindSpeedMPH,WindSpeedGustMPH,Humidity,HourlyPrecipIn,Conditions,Clouds,dailyrainin,SoftwareType,DateUTC
2013-06-01 00:13:00,73.3,70.0,29.79,South,181,5.0,-999.0,90,-99.99,,,0.46,weatherlink.com 1.10,2013-06-01 04:13:00,
2013-06-01 00:28:00,73.3,71.0,29.78,South,184,3.0,-999.0,91,-99.99,,,0.46,weatherlink.com 1.10,2013-06-01 04:28:00,
2013-06-01 00:43:00,73.2,71.0,29.78,South,180,6.0,-999.0,92,-99.99,,,0.50,weatherlink.com 1.10,2013-06-01 04:43:00,
2013-06-01 00:58:00,73.2,71.0,29.78,South,187,5.0,-999.0,93,-99.99,,,0.50,weatherlink.com 1.10,2013-06-01 04:58:00,
2013-06-01 01:13:00,71.9,69.0,29.82,SW,234,24.0,-999.0,91,-99.99,,,0.62,weatherlink.com 1.10,2013-06-01 05:13:00,
2013-06-01 01:28:00,66.5,65.0,29.80,WSW,257,19.0,-999.0,94,-99.99,,,0.81,weatherlink.com 1.10,2013-06-01 05:28:00,
2013-06-01 01:43:00,66.2,65.0,29.82,SW,229,4.0,-999.0,95,-99.99,,,0.01,weatherlink.com 1.10,2013-06-01 05:43:00,
2013-06-01 01:58:00,66.1,65.0,29.83,SSW,209,7.0,-999.0,95,-99.99,,,0.02,weatherlink.com 1.10,2013-06-01 05:58:00,
2013-06-01 02:13:00,65.9,65.0,29.81,SSW,198,0.0,-999.0,96,-99.99,,,0.03,weatherlink.com 1.10,2013-06-01 06:13:00,
2013-06-01 02:28:00,65.7,65.0,29.82,SSW,198,3.0,-999.0,96,-99.99,,,0.06,weatherlink.com 1.10,2013-06-01 06:28:00,
2013-06-01 02:43:00,65.6,65.0,29.79,SSW,198,0.0,-999.0,96,-99.99,,,0.08,weatherlink.com 1.10,2013-06-01 06:43:00,
2013-06-01 02:58:00,65.4,65.0,29.80,SSW,198,2.0,-999.0,97,-99.99,,,0.09,weatherlink.com 1.10,2013-06-01 06:58:00,
2013-06-01 03:13:00,65.3,65.0,29.79,SSW,198,3.0,-999.0,97,-99.99,,,0.13,weatherlink.com 1.10,2013-06-01 07:13:00,
2013-06-01 03:28:00,65.0,64.0,29.79,SSW,198,0.0,-999.0,97,-99.99,,,0.15,weatherlink.com 1.10,2013-06-01 07:28:00,
2013-06-01 03:43:00,65.0,64.0,29.79,SSW,205,8.0,-999.0,97,-99.99,,,0.19,weatherlink.com 1.10,2013-06-01 07:43:00,
2013-06-01 03:58:00,65.0,64.0,29.79,WSW,241,6.0,-999.0,97,-99.99,,,0.24,weatherlink.com 1.10,2013-06-01 07:58:00,
2013-06-01 04:13:00,64.5,64.0,29.78,SSW,211,3.0,-999.0,97,-99.99,,,0.29,weatherlink.com 1.10,2013-06-01 08:13:00,
2013-06-01 04:28:00,64.3,63.0,29.78,SSW,207,2.0,-999.0,96,-99.99,,,0.30,weatherlink.com 1.10,2013-06-01 08:28:00,
2013-06-01 04:43:00,64.3,64.0,29.77,SSW,196,0.0,-999.0,97,-99.99,,,0.31,weatherlink.com 1.10,2013-06-01 08:43:00,
2013-06-01 04:58:00,64.3,64.0,29.78,SSW,196,0.0,-999.0,97,-99.99,,,0.31,weatherlink.com 1.10,2013-06-01 08:58:00,
2013-06-01 05:13:00,64.4,64.0,29.78,South,177,2.0,-999.0,97,-99.99,,,0.31,weatherlink.com 1.10,2013-06-01 09:13:00,
2013-06-01 05:28:00,64.4,64.0,29.77,South,177,1.0,-999.0,97,-99.99,,,0.32,weatherlink.com 1.10,2013-06-01 09:28:00,
2013-06-01 05:43:00,64.3,64.0,29.77,SSE,159,4.0,-999.0,97,-99.99,,,0.34,weatherlink.com 1.10,2013-06-01 09:43:00,
2013-06-01 05:58:00,64.4,64.0,29.73,SE,138,9.0,-999.0,97,-99.99,,,0.35,weatherlink.com 1.10,2013-06-01 09:58:00,
2013-06-01 06:13:00,64.4,64.0,29.73,SE,129,9.0,-999.0,97,-99.99,,,0.35,weatherlink.com 1.10,2013-06-01 10:13:00,
2013-06-01 06:28:00,64.4,64.0,29.71,ESE,109,8.0,-999.0,97,-99.99,,,0.35,weatherlink.com 1.10,2013-06-01 10:28:00,
2013-06-01 06:43:00,64.4,64.0,29.73,ESE,120,1.0,-999.0,97,-99.99,,,0.36,weatherlink.com 1.10,2013-06-01 10:43:00,
2013-06-01 06:58:00,64.3,64.0,29.73,SE,126,4.0,-999.0,97,-99.99,,,0.36,weatherlink.com 1.10,2013-06-01 10:58:00,
2013-06-01 07:13:00,64.3,64.0,29.74,South,177,4.0,-999.0,97,-99.99,,,0.36,weatherlink.com 1.10,2013-06-01 11:13:00,
2013-06-01 07:28:00,64.3,63.0,29.73,South,174,0.0,-999.0,96,-99.99,,,0.36,weatherlink.com 1.10,2013-06-01 11:28:00,
2013-06-01 07:43:00,64.4,64.0,29.75,South,187,1.0,-999.0,97,-99.99,,,0.36,weatherlink.com 1.10,2013-06-01 11:43:00,
2013-06-01 07:58:00,64.6,64.0,29.76,South,185,3.0,-999.0,97,-99.99,,,0.36,weatherlink.com 1.10,2013-06-01 11:58:00,
2013-06-01 08:13:00,64.7,64.0,29.77,SSW,194,3.0,-999.0,97,-99.99,,,0.36,weatherlink.com 1.10,2013-06-01 12:13:00,
2013-06-01 08:28:00,64.8,64.0,29.76,South,188,1.0,-999.0,96,-99.99,,,0.36,weatherlink.com 1.10,2013-06-01 12:28:00,
2013-06-01 08:43:00,65.1,64.0,29.75,South,175,4.0,-999.0,96,-99.99,,,0.36,weatherlink.com 1.10,2013-06-01 12:43:00,
2013-06-01 08:58:00,65.3,64.0,29.76,South,175,4.0,-999.0,96,-99.99,,,0.36,weatherlink.com 1.10,2013-06-01 12:58:00,
2013-06-01 09:13:00,65.4,64.0,29.77,SSW,202,4.0,-999.0,96,-99.99,,,0.36,weatherlink.com 1.10,2013-06-01 13:13:00,
2013-06-01 09:28:00,66.1,65.0,29.79,SW,219,4.0,-999.0,95,-99.99,,,0.36,weatherlink.com 1.10,2013-06-01 13:28:00,
2013-06-01 09:43:00,66.5,65.0,29.79,WSW,240,5.0,-999.0,95,-99.99,,,0.36,weatherlink.com 1.10,2013-06-01 13:43:00,
2013-06-01 09:58:00,67.1,65.0,29.79,SSW,207,9.0,-999.0,94,-99.99,,,0.36,weatherlink.com 1.10,2013-06-01 13:58:00,
2013-06-01 10:14:00,68.1,66.0,29.80,SSW,207,10.0,-999.0,94,-99.99,,,0.36,weatherlink.com 1.10,2013-06-01 14:14:00,
2013-06-01 10:29:00,67.7,65.0,29.80,SSW,199,14.0,-999.0,91,-99.99,,,0.36,weatherlink.com 1.10,2013-06-01 14:29:00,
2013-06-01 10:44:00,68.0,65.0,29.79,SW,220,11.0,-999.0,91,-99.99,,,0.36,weatherlink.com 1.10,2013-06-01 14:44:00,
2013-06-01 10:59:00,68.3,65.0,29.78,SSW,201,14.0,-999.0,89,-99.99,,,0.36,weatherlink.com 1.10,2013-06-01 14:59:00,
2013-06-01 11:14:00,69.1,66.0,29.79,SSW,212,15.0,-999.0,89,-99.99,,,0.36,weatherlink.com 1.10,2013-06-01 15:14:00,
2013-06-01 11:29:00,67.7,64.0,29.80,SSW,210,11.0,-999.0,88,-99.99,,,0.36,weatherlink.com 1.10,2013-06-01 15:29:00,
2013-06-01 11:44:00,67.4,64.0,29.80,SW,221,11.0,-999.0,89,-99.99,,,0.36,weatherlink.com 1.10,2013-06-01 15:44:00,
2013-06-01 11:59:00,67.3,64.0,29.80,SSW,203,11.0,-999.0,89,-99.99,,,0.36,weatherlink.com 1.10,2013-06-01 15:59:00,
2013-06-01 12:14:00,67.6,65.0,29.79,SW,217,13.0,-999.0,90,-99.99,,,0.36,weatherlink.com 1.10,2013-06-01 16:14:00,
2013-06-01 12:29:00,67.7,64.0,29.79,SW,225,10.0,-999.0,89,-99.99,,,0.36,weatherlink.com 1.10,2013-06-01 16:29:00,
2013-06-01 12:44:00,68.1,65.0,29.79,SW,223,12.0,-999.0,89,-99.99,,,0.36,weatherlink.com 1.10,2013-06-01 16:44:00,
2013-06-01 12:59:00,67.7,64.0,29.78,SSW,205,12.0,-999.0,88,-99.99,,,0.36,weatherlink.com 1.10,2013-06-01 16:59:00,
2013-06-01 13:14:00,68.2,65.0,29.76,SSW,211,10.0,-999.0,88,-99.99,,,0.36,weatherlink.com 1.10,2013-06-01 17:14:00,
2013-06-01 13:29:00,69.1,66.0,29.75,SSW,209,8.0,-999.0,88,-99.99,,,0.36,weatherlink.com 1.10,2013-06-01 17:29:00,
2013-06-01 13:44:00,69.1,65.0,29.77,South,184,7.0,-999.0,86,-99.99,,,0.36,weatherlink.com 1.10,2013-06-01 17:44:00,
2013-06-01 13:59:00,69.1,65.0,29.76,South,188,3.0,-999.0,86,-99.99,,,0.36,weatherlink.com 1.10,2013-06-01 17:59:00,
2013-06-01 14:14:00,69.9,65.0,29.75,SSW,198,7.0,-999.0,84,-99.99,,,0.36,weatherlink.com 1.10,2013-06-01 18:14:00,
2013-06-01 14:29:00,69.3,65.0,29.76,South,178,6.0,-999.0,85,-99.99,,,0.36,weatherlink.com 1.10,2013-06-01 18:29:00,
2013-06-01 14:44:00,69.5,65.0,29.77,SSW,194,8.0,-999.0,86,-99.99,,,0.36,weatherlink.com 1.10,2013-06-01 18:44:00,
2013-06-01 14:59:00,69.9,65.0,29.77,SW,220,10.0,-999.0,85,-99.99,,,0.36,weatherlink.com 1.10,2013-06-01 18:59:00,
2013-06-01 15:14:00,70.8,67.0,29.75,SSW,204,8.0,-999.0,87,-99.99,,,0.36,weatherlink.com 1.10,2013-06-01 19:14:00,
2013-06-01 15:29:00,70.3,65.0,29.75,SSW,194,12.0,-999.0,84,-99.99,,,0.36,weatherlink.com 1.10,2013-06-01 19:29:00,
2013-06-01 15:44:00,71.0,67.0,29.76,SSW,205,9.0,-999.0,86,-99.99,,,0.36,weatherlink.com 1.10,2013-06-01 19:44:00,
2013-06-01 15:59:00,70.6,66.0,29.75,SSW,205,8.0,-999.0,84,-99.99,,,0.36,weatherlink.com 1.10,2013-06-01 19:59:00,
2013-06-01 16:14:00,70.4,66.0,29.75,SSW,208,8.0,-999.0,85,-99.99,,,0.36,weatherlink.com 1.10,2013-06-01 20:14:00,
2013-06-01 16:29:00,70.4,66.0,29.74,SSW,194,12.0,-999.0,85,-99.99,,,0.36,weatherlink.com 1.10,2013-06-01 20:29:00,
2013-06-01 16:44:00,71.1,66.0,29.73,SSW,195,11.0,-999.0,84,-99.99,,,0.36,weatherlink.com 1.10,2013-06-01 20:44:00,
2013-06-01 16:59:00,71.9,67.0,29.74,SSW,202,11.0,-999.0,83,-99.99,,,0.36,weatherlink.com 1.10,2013-06-01 20:59:00,
2013-06-01 17:14:00,72.5,67.0,29.74,SSW,199,10.0,-999.0,82,-99.99,,,0.36,weatherlink.com 1.10,2013-06-01 21:14:00,
2013-06-01 17:29:00,71.7,67.0,29.73,SSW,211,8.0,-999.0,85,-99.99,,,0.36,weatherlink.com 1.10,2013-06-01 21:29:00,
2013-06-01 17:44:00,72.8,67.0,29.73,SSW,213,7.0,-999.0,83,-99.99,,,0.36,weatherlink.com 1.10,2013-06-01 21:44:00,
2013-06-01 17:59:00,72.8,67.0,29.74,SW,223,14.0,-999.0,83,-99.99,,,0.36,weatherlink.com 1.10,2013-06-01 21:59:00,
2013-06-01 18:14:00,72.9,68.0,29.72,SSW,205,7.0,-999.0,83,-99.99,,,0.36,weatherlink.com 1.10,2013-06-01 22:14:00,
2013-06-01 18:29:00,72.6,67.0,29.71,SSW,211,10.0,-999.0,82,-99.99,,,0.36,weatherlink.com 1.10,2013-06-01 22:29:00,
2013-06-01 18:44:00,73.5,67.0,29.70,SSW,200,11.0,-999.0,81,-99.99,,,0.36,weatherlink.com 1.10,2013-06-01 22:44:00,
2013-06-01 18:59:00,73.3,67.0,29.70,SSW,198,14.0,-999.0,80,-99.99,,,0.36,weatherlink.com 1.10,2013-06-01 22:59:00,
2013-06-01 19:14:00,73.1,67.0,29.70,SSW,201,10.0,-999.0,81,-99.99,,,0.36,weatherlink.com 1.10,2013-06-01 23:14:00,
2013-06-01 19:29:00,72.0,66.0,29.70,SSW,207,7.0,-999.0,81,-99.99,,,0.36,weatherlink.com 1.10,2013-06-01 23:29:00,
2013-06-01 19:44:00,71.5,66.0,29.70,SSW,192,15.0,-999.0,82,-99.99,,,0.36,weatherlink.com 1.10,2013-06-01 23:44:00,
2013-06-01 19:59:00,71.1,65.0,29.71,SSW,198,11.0,-999.0,81,-99.99,,,0.36,weatherlink.com 1.10,2013-06-01 23:59:00,
2013-06-01 20:14:00,70.9,65.0,29.71,SSW,212,8.0,-999.0,82,-99.99,,,0.36,weatherlink.com 1.10,2013-06-02 00:14:00,
2013-06-01 20:29:00,70.5,65.0,29.71,SSW,209,9.0,-999.0,83,-99.99,,,0.36,weatherlink.com 1.10,2013-06-02 00:29:00,
2013-06-01 20:44:00,70.2,65.0,29.71,SSW,195,8.0,-999.0,84,-99.99,,,0.36,weatherlink.com 1.10,2013-06-02 00:44:00,
2013-06-01 20:59:00,69.8,65.0,29.71,SW,214,9.0,-999.0,85,-99.99,,,0.36,weatherlink.com 1.10,2013-06-02 00:59:00,
2013-06-01 21:14:00,69.5,65.0,29.70,SSW,205,6.0,-999.0,85,-99.99,,,0.36,weatherlink.com 1.10,2013-06-02 01:14:00,
2013-06-01 21:29:00,69.2,65.0,29.71,SSW,201,7.0,-999.0,86,-99.99,,,0.36,weatherlink.com 1.10,2013-06-02 01:29:00,
2013-06-01 21:44:00,68.5,65.0,29.71,SSW,200,4.0,-999.0,88,-99.99,,,0.36,weatherlink.com 1.10,2013-06-02 01:44:00,
2013-06-01 21:59:00,68.6,65.0,29.72,SSW,212,4.0,-999.0,88,-99.99,,,0.36,weatherlink.com 1.10,2013-06-02 01:59:00,
2013-06-01 22:14:00,68.4,65.0,29.72,SW,223,9.0,-999.0,89,-99.99,,,0.36,weatherlink.com 1.10,2013-06-02 02:14:00,
2013-06-01 22:29:00,68.4,65.0,29.73,SSW,209,5.0,-999.0,89,-99.99,,,0.36,weatherlink.com 1.10,2013-06-02 02:29:00,
2013-06-01 22:44:00,68.2,65.0,29.73,SW,219,5.0,-999.0,89,-99.99,,,0.36,weatherlink.com 1.10,2013-06-02 02:44:00,
2013-06-01 22:59:00,65.1,61.0,29.75,West,270,5.0,-999.0,86,-99.99,,,0.37,weatherlink.com 1.10,2013-06-02 02:59:00,
2013-06-01 23:14:00,62.3,61.0,29.75,SW,229,4.0,-999.0,94,-99.99,,,0.51,weatherlink.com 1.10,2013-06-02 03:14:00,
2013-06-01 23:29:00,62.0,61.0,29.75,SSW,213,7.0,-999.0,96,-99.99,,,0.54,weatherlink.com 1.10,2013-06-02 03:29:00,
2013-06-01 23:44:00,62.0,61.0,29.74,SSW,203,4.0,-999.0,96,-99.99,,,0.56,weatherlink.com 1.10,2013-06-02 03:44:00,
2013-06-01 23:59:00,61.9,61.0,29.75,SW,217,6.0,-999.0,96,-99.99,,,0.57,weatherlink.com 1.10,2013-06-02 03:59:00,